createdAt,value
2023-05-20T00:01:21.588Z,102282.31
2023-05-20T00:03:49.571Z,102277.94
2023-05-20T00:06:17.444Z,102280.06
2023-05-20T00:08:46.587Z,102284.66
2023-05-20T00:11:14.364Z,102279.25
2023-05-20T00:13:42.155Z,102287.63
2023-05-20T00:16:10.072Z,102281.59
2023-05-20T00:18:37.880Z,102278.50
2023-05-20T00:21:05.650Z,102285.81
2023-05-20T00:23:33.433Z,102284.16
2023-05-20T00:26:02.567Z,102282.72
2023-05-20T00:28:30.744Z,102277.28
2023-05-20T00:30:58.484Z,102281.91
2023-05-20T00:33:26.270Z,102274.81
2023-05-20T00:35:53.986Z,102279.63
2023-05-20T00:38:21.744Z,102278.22
2023-05-20T00:40:49.533Z,102270.06
2023-05-20T00:43:20.388Z,102274.06
2023-05-20T00:45:48.508Z,102277.59
2023-05-20T00:48:16.272Z,102277.59
2023-05-20T00:50:46.396Z,102276.19
2023-05-20T00:53:14.172Z,102277.25
2023-05-20T00:55:42.072Z,102274.97
2023-05-20T00:58:09.992Z,102268.94
2023-05-20T01:00:39.630Z,102273.56
2023-05-20T01:03:07.515Z,102269.41
2023-05-20T01:05:35.429Z,102270.69
2023-05-20T01:08:03.312Z,102268.19
2023-05-20T01:10:32.408Z,102261.31
2023-05-20T01:13:03.329Z,102264.25
2023-05-20T01:15:32.476Z,102256.34
2023-05-20T01:18:06.054Z,102260.34
2023-05-20T01:20:34.547Z,102263.28
2023-05-20T01:23:04.248Z,102258.06
2023-05-20T01:25:32.193Z,102266.44
2023-05-20T01:28:00.066Z,102260.41
2023-05-20T01:30:35.501Z,102263.34
2023-05-20T01:33:11.832Z,102260.03
2023-05-20T01:35:42.378Z,102263.81
2023-05-20T01:38:12.410Z,102261.53
2023-05-20T01:40:41.914Z,102255.28
2023-05-20T01:43:10.681Z,102250.91
2023-05-20T01:45:39.833Z,102244.88
2023-05-20T01:48:07.734Z,102248.66
2023-05-20T01:50:35.515Z,102250.75
2023-05-20T01:53:03.277Z,102255.59
2023-05-20T01:55:32.538Z,102255.59
2023-05-20T01:58:00.417Z,102254.75
2023-05-20T02:00:28.334Z,102242.69
2023-05-20T02:02:56.355Z,102237.28
2023-05-20T02:05:24.123Z,102240.81
2023-05-20T02:07:51.934Z,102243.53
2023-05-20T02:10:19.709Z,102238.31
2023-05-20T02:12:49.416Z,102254.00
2023-05-20T02:15:17.350Z,102247.97
2023-05-20T02:17:45.138Z,102237.13
2023-05-20T02:20:13.993Z,102238.16
2023-05-20T02:22:41.934Z,102244.06
2023-05-20T02:25:10.850Z,102236.97
2023-05-20T02:27:39.882Z,102240.97
2023-05-20T02:30:10.468Z,102243.28
2023-05-20T02:32:38.339Z,102246.00
2023-05-20T02:35:06.822Z,102238.91
2023-05-20T02:37:34.612Z,102233.50
2023-05-20T02:40:02.366Z,102225.88
2023-05-20T02:42:30.124Z,102237.72
2023-05-20T02:44:58.852Z,102233.34
2023-05-20T02:47:28.648Z,102239.00
2023-05-20T02:49:56.609Z,102239.22
2023-05-20T02:52:24.654Z,102242.16
2023-05-20T02:54:52.849Z,102233.41
2023-05-20T02:57:20.715Z,102236.34
2023-05-20T02:59:48.444Z,102223.00
2023-05-20T03:02:16.182Z,102226.78
2023-05-20T03:04:46.859Z,102229.72
2023-05-20T03:07:17.609Z,102230.97
2023-05-20T03:09:45.360Z,102232.03
2023-05-20T03:12:13.093Z,102236.84
2023-05-20T03:14:40.827Z,102224.56
2023-05-20T03:17:09.452Z,102225.84
2023-05-20T03:19:37.560Z,102227.72
2023-05-20T03:22:07.062Z,102226.28
2023-05-20T03:24:34.877Z,102222.75
2023-05-20T03:27:02.618Z,102221.94
2023-05-20T03:29:31.329Z,102222.38
2023-05-20T03:31:59.120Z,102216.34
2023-05-20T03:34:28.165Z,102218.22
2023-05-20T03:36:55.912Z,102223.03
2023-05-20T03:39:25.132Z,102221.38
2023-05-20T03:41:52.875Z,102219.72
2023-05-20T03:44:20.617Z,102218.28
2023-05-20T03:46:48.404Z,102225.59
2023-05-20T03:49:16.188Z,102215.78
2023-05-20T03:51:43.914Z,102216.84
2023-05-20T03:54:11.952Z,102219.56
2023-05-20T03:56:41.027Z,102217.91
2023-05-20T03:59:08.752Z,102212.69
2023-05-20T04:01:37.342Z,102217.28
2023-05-20T04:04:06.020Z,102221.28
2023-05-20T04:06:34.044Z,102219.66
2023-05-20T04:09:01.790Z,102215.28
2023-05-20T04:11:29.597Z,102224.47
2023-05-20T04:14:00.348Z,102231.75
2023-05-20T04:16:29.511Z,102224.88
2023-05-20T04:18:59.143Z,102227.56
2023-05-20T04:21:27.316Z,102231.34
2023-05-20T04:23:55.134Z,102223.44
2023-05-20T04:26:22.886Z,102233.44
2023-05-20T04:28:50.684Z,102230.13
2023-05-20T04:31:20.868Z,102226.59
2023-05-20T04:33:48.702Z,102230.34
2023-05-20T04:36:17.419Z,102231.63
2023-05-20T04:38:45.439Z,102218.28
2023-05-20T04:41:13.181Z,102223.09
2023-05-20T04:43:40.965Z,102231.44
2023-05-20T04:46:08.886Z,102221.66
2023-05-20T04:48:38.186Z,102222.09
2023-05-20T04:51:05.956Z,102230.22
2023-05-20T04:53:34.010Z,102231.28
2023-05-20T04:56:01.832Z,102224.19
2023-05-20T04:58:30.302Z,102219.00
2023-05-20T05:00:58.171Z,102224.41
2023-05-20T05:03:26.060Z,102220.88
2023-05-20T05:05:58.353Z,102223.59
2023-05-20T05:08:26.430Z,102214.63
2023-05-20T05:10:54.267Z,102216.06
2023-05-20T05:13:21.981Z,102206.28
2023-05-20T05:15:49.737Z,102212.31
2023-05-20T05:18:18.601Z,102208.56
2023-05-20T05:20:46.462Z,102212.91
2023-05-20T05:23:15.603Z,102204.56
2023-05-20T05:25:43.430Z,102210.59
2023-05-20T05:28:11.133Z,102208.50
2023-05-20T05:30:38.886Z,102203.91
2023-05-20T05:33:06.750Z,102212.66
2023-05-20T05:35:34.790Z,102214.09
2023-05-20T05:38:03.158Z,102207.41
2023-05-20T05:40:32.321Z,102210.50
2023-05-20T05:43:00.215Z,102205.69
2023-05-20T05:45:28.051Z,102212.78
2023-05-20T05:47:56.014Z,102197.13
2023-05-20T05:50:23.776Z,102206.91
2023-05-20T05:52:51.545Z,102205.63
2023-05-20T05:55:19.353Z,102210.81
2023-05-20T05:57:48.461Z,102208.94
2023-05-20T06:00:16.862Z,102213.31
2023-05-20T06:02:44.666Z,102213.31
2023-05-20T06:05:12.720Z,102206.84
2023-05-20T06:07:40.461Z,102209.31
2023-05-20T06:10:09.331Z,102203.69
2023-05-20T06:12:37.173Z,102211.38
2023-05-20T06:15:08.034Z,102203.00
2023-05-20T06:17:35.869Z,102204.44
2023-05-20T06:20:04.392Z,102203.16
2023-05-20T06:22:32.147Z,102191.06
2023-05-20T06:25:02.371Z,102194.97
2023-05-20T06:27:30.276Z,102191.22
2023-05-20T06:29:57.989Z,102183.47
2023-05-20T06:32:27.113Z,102183.84
2023-05-20T06:34:54.911Z,102187.97
2023-05-20T06:37:24.497Z,102180.44
2023-05-20T06:39:54.065Z,102181.06
2023-05-20T06:42:22.343Z,102191.44
2023-05-20T06:44:50.086Z,102187.47
2023-05-20T06:47:18.864Z,102172.84
2023-05-20T06:49:47.966Z,102168.84
2023-05-20T06:52:15.726Z,102165.69
2023-05-20T06:54:44.137Z,102166.72
2023-05-20T06:57:12.047Z,102172.91
2023-05-20T06:59:39.960Z,102160.25
2023-05-20T07:02:07.934Z,102169.22
2023-05-20T07:04:36.004Z,102168.41
2023-05-20T07:07:05.437Z,102164.63
2023-05-20T07:09:33.290Z,102166.28
2023-05-20T07:12:01.028Z,102162.53
2023-05-20T07:14:28.812Z,102164.19
2023-05-20T07:16:56.544Z,102159.13
2023-05-20T07:19:24.469Z,102161.63
2023-05-20T07:21:52.343Z,102154.91
2023-05-20T07:24:21.443Z,102156.56
2023-05-20T07:26:49.425Z,102159.03
2023-05-20T07:29:17.179Z,102156.09
2023-05-20T07:31:45.032Z,102143.97
2023-05-20T07:34:12.857Z,102144.81
2023-05-20T07:36:40.912Z,102135.16
2023-05-20T07:39:13.183Z,102141.41
2023-05-20T07:41:44.193Z,102143.66
2023-05-20T07:44:13.030Z,102140.94
2023-05-20T07:46:42.014Z,102133.63
2023-05-20T07:49:09.909Z,102136.34
2023-05-20T07:51:37.678Z,102126.91
2023-05-20T07:54:05.451Z,102134.00
2023-05-20T07:56:33.350Z,102131.53
2023-05-20T07:59:03.302Z,102129.41
2023-05-20T08:01:31.830Z,102123.50
2023-05-20T08:03:59.840Z,102125.16
2023-05-20T08:06:29.663Z,102126.13
2023-05-20T08:08:57.791Z,102124.94
2023-05-20T08:11:25.630Z,102123.28
2023-05-20T08:13:53.385Z,102126.81
2023-05-20T08:16:23.610Z,102119.50
2023-05-20T08:18:51.514Z,102120.13
2023-05-20T08:21:19.347Z,102119.06
2023-05-20T08:23:47.123Z,102112.34
2023-05-20T08:26:14.876Z,102103.97
2023-05-20T08:28:42.681Z,102109.16
2023-05-20T08:31:10.802Z,102103.50
2023-05-20T08:33:39.972Z,102114.72
2023-05-20T08:36:08.187Z,102109.09
2023-05-20T08:38:36.551Z,102096.72
2023-05-20T08:41:04.359Z,102100.25
2023-05-20T08:43:32.635Z,102090.00
2023-05-20T08:46:02.385Z,102095.78
2023-05-20T08:48:31.259Z,102091.09
2023-05-20T08:51:01.313Z,102101.84
2023-05-20T08:53:29.543Z,102096.41
2023-05-20T08:56:02.773Z,102094.28
2023-05-20T08:58:30.824Z,102098.91
2023-05-20T09:00:59.843Z,102097.25
2023-05-20T09:03:28.010Z,102089.09
2023-05-20T09:06:04.475Z,102087.22
2023-05-20T09:08:34.652Z,102090.75
2023-05-20T09:11:02.661Z,102081.31
2023-05-20T09:13:32.507Z,102084.63
2023-05-20T09:16:02.042Z,102071.63
2023-05-20T09:18:30.992Z,102072.69
2023-05-20T09:20:59.185Z,102076.59
2023-05-20T09:23:27.896Z,102079.66
2023-05-20T09:25:57.003Z,102074.81
2023-05-20T09:28:25.637Z,102074.34
2023-05-20T09:30:59.283Z,102071.41
2023-05-20T09:33:29.911Z,102085.09
2023-05-20T09:36:04.214Z,102076.72
2023-05-20T09:38:37.938Z,102074.38
2023-05-20T09:41:09.337Z,102083.94
2023-05-20T09:43:37.892Z,102076.38
2023-05-20T09:46:06.131Z,102082.16
2023-05-20T09:48:36.704Z,102078.47
2023-05-20T09:51:06.825Z,102070.66
2023-05-20T09:53:34.765Z,102072.44
2023-05-20T09:56:02.539Z,102067.59
2023-05-20T09:58:32.193Z,102067.59
2023-05-20T10:00:59.997Z,102060.84
2023-05-20T10:03:28.688Z,102053.88
2023-05-20T10:06:17.353Z,102051.63
2023-05-20T10:09:01.048Z,102047.25
2023-05-20T10:11:39.461Z,102049.25
2023-05-20T10:14:20.856Z,102047.38
2023-05-20T10:16:52.866Z,102034.94
2023-05-20T10:19:32.689Z,102036.13
2023-05-20T10:22:02.892Z,102038.59
2023-05-20T10:24:32.323Z,102046.06
2023-05-20T10:27:02.772Z,102032.25
2023-05-20T10:29:43.522Z,102021.38
2023-05-20T10:32:11.901Z,102014.28
2023-05-20T10:34:47.375Z,102013.44
2023-05-20T10:37:24.691Z,102017.59
2023-05-20T10:39:52.483Z,102011.91
2023-05-20T10:42:30.246Z,102018.75
2023-05-20T10:44:59.380Z,102016.13
2023-05-20T10:47:27.247Z,102017.31
2023-05-20T10:49:55.037Z,102010.31
2023-05-20T10:52:23.040Z,102009.25
2023-05-20T10:54:57.704Z,101997.63
2023-05-20T10:57:27.168Z,101998.22
2023-05-20T10:59:54.948Z,102002.34
2023-05-20T11:02:27.074Z,101999.16
2023-05-20T11:04:57.600Z,102004.69
2023-05-20T11:07:29.373Z,101998.50
2023-05-20T11:09:57.317Z,101990.19
2023-05-20T11:12:27.051Z,101985.66
2023-05-20T11:14:55.274Z,101984.13
2023-05-20T11:17:24.409Z,101987.41
2023-05-20T11:19:52.220Z,101985.50
2023-05-20T11:22:20.046Z,101981.97
2023-05-20T11:24:47.860Z,101975.47
2023-05-20T11:27:15.702Z,101971.41
2023-05-20T11:29:43.752Z,101978.69
2023-05-20T11:32:11.607Z,101978.28
2023-05-20T11:34:41.108Z,101978.34
2023-05-20T11:37:09.878Z,101971.38
2023-05-20T11:39:38.873Z,101975.75
2023-05-20T11:42:07.015Z,101961.31
2023-05-20T11:44:34.965Z,101969.22
2023-05-20T11:47:04.105Z,101969.22
2023-05-20T11:49:40.155Z,101966.25
2023-05-20T11:52:12.083Z,101970.38
2023-05-20T11:54:39.928Z,101958.66
2023-05-20T11:57:07.768Z,101968.50
2023-05-20T11:59:36.642Z,101952.72
2023-05-20T12:02:04.514Z,101959.31
2023-05-20T12:04:32.289Z,101949.66
2023-05-20T12:07:00.135Z,101955.44
2023-05-20T12:09:29.286Z,101938.59
2023-05-20T12:11:57.121Z,101942.53
2023-05-20T12:14:24.881Z,101941.72
2023-05-20T12:16:53.720Z,101932.72
2023-05-20T12:19:21.615Z,101941.47
2023-05-20T12:21:49.394Z,101927.00
2023-05-20T12:24:17.180Z,101928.97
2023-05-20T12:26:46.432Z,101929.56
2023-05-20T12:29:14.291Z,101934.47
2023-05-20T12:31:42.148Z,101935.84
2023-05-20T12:34:09.958Z,101931.06
2023-05-20T12:36:37.946Z,101927.56
2023-05-20T12:39:06.160Z,101928.13
2023-05-20T12:41:33.945Z,101933.09
2023-05-20T12:44:03.133Z,101928.44
2023-05-20T12:46:31.192Z,101919.19
2023-05-20T12:48:59.075Z,101935.31
2023-05-20T12:51:26.904Z,101931.88
2023-05-20T12:53:54.724Z,101935.44
2023-05-20T12:56:23.026Z,101925.25
2023-05-20T12:58:50.751Z,101922.00
2023-05-20T13:01:19.882Z,101923.72
2023-05-20T13:03:48.185Z,101925.34
2023-05-20T13:06:16.667Z,101928.91
2023-05-20T13:08:45.328Z,101922.06
2023-05-20T13:42:45.606Z,101915.00
2023-05-20T14:19:01.394Z,101880.97
2023-05-20T14:21:29.192Z,101873.88
2023-05-20T14:23:56.986Z,101867.84
2023-05-20T14:26:24.797Z,101870.84
2023-05-20T14:28:52.605Z,101861.84
2023-05-20T14:31:20.746Z,101859.66
2023-05-20T14:33:48.584Z,101868.69
2023-05-20T14:36:17.989Z,101865.69
2023-05-20T14:38:47.111Z,101864.59
2023-05-20T14:41:15.996Z,101856.19
2023-05-20T14:43:43.811Z,101866.34
2023-05-20T14:46:12.029Z,101857.38
2023-05-20T14:48:39.834Z,101854.13
2023-05-20T14:51:07.623Z,101845.69
2023-05-20T14:53:36.777Z,101845.19
2023-05-20T14:56:04.624Z,101840.00
2023-05-20T14:58:32.342Z,101841.91
2023-05-20T15:01:00.203Z,101841.09
2023-05-20T15:03:28.513Z,101831.00
2023-05-20T15:05:56.565Z,101830.69
2023-05-20T15:08:24.340Z,101829.06
2023-05-20T15:10:53.585Z,101831.22
2023-05-20T15:13:21.403Z,101829.31
2023-05-20T15:15:49.161Z,101825.78
2023-05-20T15:18:17.013Z,101826.59
2023-05-20T15:20:45.118Z,101826.84
2023-05-20T15:23:13.321Z,101827.13
2023-05-20T15:25:41.117Z,101829.28
2023-05-20T15:28:10.267Z,101820.00
2023-05-20T15:30:38.301Z,101825.22
2023-05-20T15:33:06.288Z,101814.00
2023-05-20T15:35:34.115Z,101815.38
2023-05-20T15:38:01.904Z,101813.72
2023-05-20T15:40:29.669Z,101806.63
2023-05-20T15:42:58.417Z,101824.91
2023-05-20T15:45:28.079Z,101810.19
2023-05-20T15:47:55.920Z,101809.38
2023-05-20T15:50:23.959Z,101809.38
2023-05-20T15:52:52.997Z,101796.81
2023-05-20T15:55:23.177Z,101792.16
2023-05-20T15:57:51.104Z,101803.38
2023-05-20T16:00:20.397Z,101793.78
2023-05-20T16:02:49.649Z,101795.75
2023-05-20T16:05:17.929Z,101788.91
2023-05-20T16:07:46.737Z,101791.09
2023-05-20T16:10:14.514Z,101785.63
2023-05-20T16:12:42.266Z,101785.09
2023-05-20T16:15:11.098Z,101784.00
2023-05-20T16:17:39.110Z,101782.09
2023-05-20T16:20:10.184Z,101790.84
2023-05-20T16:22:38.086Z,101786.47
2023-05-20T16:25:06.381Z,101788.94
2023-05-20T16:27:34.140Z,101785.38
2023-05-20T16:30:01.874Z,101781.56
2023-05-20T16:32:29.628Z,101788.66
2023-05-20T16:34:57.814Z,101787.59
2023-05-20T16:37:26.904Z,101785.16
2023-05-20T16:39:54.662Z,101781.06
2023-05-20T16:42:22.421Z,101787.88
2023-05-20T16:44:52.487Z,101779.69
2023-05-20T16:47:20.312Z,101789.53
2023-05-20T16:49:48.142Z,101791.44
2023-05-20T16:52:16.100Z,101783.78
2023-05-20T16:54:45.255Z,101787.88
2023-05-20T16:57:14.076Z,101785.16
2023-05-20T16:59:41.815Z,101792.50
2023-05-20T17:02:09.552Z,101788.97
2023-05-20T17:04:37.750Z,101779.13
2023-05-20T17:07:09.674Z,101781.84
2023-05-20T17:09:37.658Z,101781.84
2023-05-20T17:12:07.945Z,101781.31
2023-05-20T17:14:37.003Z,101794.72
2023-05-20T17:17:05.264Z,101803.50
2023-05-20T17:19:33.117Z,101806.47
2023-05-20T17:22:00.895Z,101804.81
2023-05-20T17:24:28.691Z,101814.34
2023-05-20T17:26:56.727Z,101809.16
2023-05-20T17:29:25.892Z,101808.34
2023-05-20T17:31:53.688Z,101820.34
2023-05-20T17:34:21.445Z,101802.84
2023-05-20T17:36:49.145Z,101813.25
2023-05-20T17:39:16.984Z,101814.06
2023-05-20T17:41:45.601Z,101808.88
2023-05-20T17:44:13.363Z,101798.75
2023-05-20T17:46:42.905Z,101809.69
2023-05-20T17:49:10.797Z,101806.13
2023-05-20T17:51:38.555Z,101807.78
2023-05-20T17:54:06.346Z,101812.41
2023-05-20T17:56:34.158Z,101809.13
2023-05-20T17:59:01.897Z,101818.66
2023-05-20T18:01:29.988Z,101815.38
2023-05-20T18:04:03.789Z,101811.56
2023-05-20T18:06:34.756Z,101812.91
2023-05-20T18:09:03.623Z,101810.75
2023-05-20T18:11:31.944Z,101823.56
2023-05-20T18:13:59.800Z,101816.47
2023-05-20T18:16:28.196Z,101808.00
2023-05-20T18:18:56.565Z,101800.03
2023-05-20T18:21:26.392Z,101797.63
2023-05-20T18:23:54.207Z,101805.00
2023-05-20T18:26:22.680Z,101805.84
2023-05-20T18:28:50.991Z,101814.03
2023-05-20T18:31:18.934Z,101826.03
2023-05-20T18:33:46.725Z,101812.66
2023-05-20T18:36:14.549Z,101814.56
2023-05-20T18:38:44.956Z,101828.19
2023-05-20T18:41:12.733Z,101826.56
2023-05-20T18:43:40.587Z,101825.72
2023-05-20T18:46:08.458Z,101830.63
2023-05-20T18:48:36.427Z,101826.25
2023-05-20T18:51:04.352Z,101821.88
2023-05-20T18:53:32.165Z,101826.78
2023-05-20T18:56:03.096Z,101821.84
2023-05-20T18:58:31.117Z,101820.75
2023-05-20T19:00:58.917Z,101828.91
2023-05-20T19:03:26.675Z,101821.81
2023-05-20T19:05:54.505Z,101821.81
2023-05-20T19:08:23.192Z,101831.06
2023-05-20T19:10:51.090Z,101837.88
2023-05-20T19:13:20.348Z,101838.13
2023-05-20T19:15:48.158Z,101837.31
2023-05-20T19:18:16.297Z,101841.94
2023-05-20T19:20:44.096Z,101846.59
2023-05-20T19:23:11.828Z,101846.84
2023-05-20T19:25:39.586Z,101847.94
2023-05-20T19:28:07.538Z,101851.75
2023-05-20T19:30:36.705Z,101851.19
2023-05-20T19:33:06.125Z,101853.09
2023-05-20T19:35:35.029Z,101853.34
2023-05-20T19:38:04.946Z,101858.25
2023-05-20T19:40:32.783Z,101860.13
2023-05-20T19:43:00.594Z,101860.41
2023-05-20T19:45:28.352Z,101853.31
2023-05-20T19:47:58.132Z,101857.94
2023-05-20T19:50:25.881Z,101854.63
2023-05-20T19:52:53.655Z,101853.00
2023-05-20T19:55:21.377Z,101855.97
2023-05-20T19:57:53.293Z,101858.97
2023-05-20T20:00:21.455Z,101855.94
2023-05-20T20:02:49.954Z,101860.31
2023-05-20T20:05:22.277Z,101857.00
2023-05-20T20:07:51.522Z,101851.81
2023-05-20T20:10:19.253Z,101854.81
2023-05-20T20:12:46.987Z,101858.63
2023-05-20T20:15:15.172Z,101857.22
2023-05-20T20:17:45.357Z,101858.03
2023-05-20T20:20:14.861Z,101855.00
2023-05-20T20:22:43.977Z,101857.16
2023-05-20T20:25:13.849Z,101854.69
2023-05-20T20:27:43.897Z,101846.16
2023-05-20T20:30:13.411Z,101857.69
2023-05-20T20:32:41.658Z,101853.56
2023-05-20T20:35:10.861Z,101847.56
2023-05-20T20:37:38.714Z,101848.63
2023-05-20T20:40:13.247Z,101851.28
2023-05-20T20:42:44.755Z,101862.78
2023-05-20T20:45:13.131Z,101861.34
2023-05-20T20:47:41.114Z,101861.63
2023-05-20T20:50:09.646Z,101846.84
2023-05-20T20:52:38.665Z,101855.28
2023-05-20T20:55:09.960Z,101863.72
2023-05-20T20:57:37.824Z,101864.22
2023-05-20T21:00:08.894Z,101857.38
2023-05-20T21:02:36.656Z,101857.06
2023-05-20T21:05:04.456Z,101852.97
2023-05-20T21:07:32.493Z,101847.50
2023-05-20T21:10:00.486Z,101848.84
2023-05-20T21:12:29.590Z,101834.84
2023-05-20T21:14:57.332Z,101843.91
2023-05-20T21:17:25.062Z,101846.06
2023-05-20T21:19:54.668Z,101837.81
2023-05-20T21:22:22.513Z,101837.25
2023-05-20T21:24:50.386Z,101832.88
2023-05-20T21:27:18.128Z,101832.88
2023-05-20T21:29:48.532Z,101833.38
2023-05-20T21:32:16.304Z,101837.19
2023-05-20T21:34:44.068Z,101833.06
2023-05-20T21:37:11.851Z,101831.72
2023-05-20T21:39:39.794Z,101829.81
2023-05-20T21:42:07.768Z,101828.16
2023-05-20T21:44:35.505Z,101825.69
2023-05-20T21:47:04.647Z,101825.13
2023-05-20T21:49:33.003Z,101821.81
2023-05-20T21:52:00.812Z,101818.28
2023-05-20T21:54:28.549Z,101826.72
2023-05-20T21:56:56.314Z,101820.44
2023-05-20T21:59:24.052Z,101827.78
2023-05-20T22:01:51.801Z,101828.88
2023-05-20T22:04:21.677Z,101830.75
2023-05-20T22:06:50.777Z,101831.84
2023-05-20T22:09:18.521Z,101834.00
2023-05-20T22:11:48.011Z,101825.00
2023-05-20T22:14:16.270Z,101824.19
2023-05-20T22:16:46.495Z,101821.97
2023-05-20T22:19:15.687Z,101829.31
2023-05-20T22:21:50.605Z,101823.28
2023-05-20T22:24:19.113Z,101822.72
2023-05-20T22:26:46.860Z,101819.41
2023-05-20T22:29:14.767Z,101814.47
2023-05-20T22:31:42.638Z,101797.44
2023-05-20T22:34:10.533Z,101814.97
2023-05-20T22:36:39.424Z,101807.31
2023-05-20T22:39:08.654Z,101811.13
2023-05-20T22:41:36.561Z,101800.72
2023-05-20T22:44:04.451Z,101804.53
2023-05-20T22:46:32.348Z,101800.16
2023-05-20T22:49:01.785Z,101798.75
2023-05-20T22:51:31.259Z,101799.84
2023-05-20T22:53:58.995Z,101794.03
2023-05-20T22:56:29.503Z,101784.97
2023-05-20T22:58:57.248Z,101781.19
2023-05-20T23:01:25.038Z,101784.97
2023-05-20T23:03:53.764Z,101788.78
2023-05-20T23:06:22.559Z,101782.75
2023-05-20T23:08:50.496Z,101772.38
2023-05-20T23:11:18.225Z,101780.78
2023-05-20T23:13:47.333Z,101778.31
2023-05-20T23:16:15.215Z,101768.50
2023-05-20T23:18:43.075Z,101766.28
2023-05-20T23:21:10.874Z,101773.63
2023-05-20T23:23:38.621Z,101771.75
2023-05-20T23:26:06.487Z,101771.16
2023-05-20T23:28:34.256Z,101767.88
2023-05-20T23:31:03.482Z,101764.31
2023-05-20T23:33:31.514Z,101762.69
2023-05-20T23:35:59.364Z,101762.09
2023-05-20T23:38:27.178Z,101757.75
2023-05-20T23:40:54.946Z,101760.72
2023-05-20T23:43:22.711Z,101757.16
2023-05-20T23:45:50.514Z,101750.91
2023-05-20T23:48:19.917Z,101753.03
2023-05-20T23:50:48.186Z,101739.06
2023-05-20T23:53:15.950Z,101745.38
2023-05-20T23:55:45.103Z,101745.63
2023-05-20T23:58:12.875Z,101741.28
